Bonetraill, North Dakota
Current Conditions -  °F | °C
As of 12:52 PM on Thursday 27 Nov 2014 (Local Time) from KISN Reporting Station
Moderate Snow Moderate Snow  
Wind Chill:   Ceiling: 1000
Heat Index: 20°   Visibility: 0.5mi
Dew Point: 17°   Wind: 9mph
Humidity: 89%   Direction: 110°ESE
Pressure: 29.95"   Gusts: NA
Location:  48.3082°N, 103.697°W
Report Text: KISN 271852Z AUTO 11008KT 1/2SM SN FZFG VV010 M07/M08 A2995 RMK AO2 SLP183 P0005 T10671083
Loading
Personal Weather Stations






























Interactive Weather Map New forecast layout! Learn more

10-Day Weather Forecast

Advertisements
Track Severe Weather on mobile